Temp: 17.2°C   Baro: 1010.2mb
  Wind: 9.0mph   Dir: WNW (287°)
  Rain: 0.8mm (0.0mm/hr)
  Solar: 142W/m2  Hum: 92%
 
Bath Spa Weather Station Historical Data
Daily Summary for November 19, 2019 Units:  Metric    English   Both
Daily Weekly Monthly Yearly Custom
  High: Low: Average:
Temperature: 8.8 °C -17.8 °C 4.8 °C
Dew Point: 6.4 °C -17.8 °C 3.2 °C
Humidity: 94% % 89%
Wind Speed: 10.3km/h 0km/h 3.4km/h
Wind Gust: 22.5km/h - -
Wind- - SE
Pressure: 1017.5 hPa 0 hPa -
Precipitation: 0.25 mm    
Historical Graphs
 
 
Tabular Data for November 19, 2019
Time Temperature Dew Point Pressure Wind Wind Speed Wind Gust Humidity Rainfall Rate (Hourly) solar
00:04 0 °C -1.1 °C 1017.5 hPa Calm   1.6 km/h 92% 0 mm 0 W/m2
00:09 0 °C -1.1 °C 1017.5 hPa Calm   1.6 km/h 92% 0 mm 0 W/m2
00:14 -0.1 °C -1.2 °C 1017.5 hPa Calm     92.2% 0 mm 0 W/m2
00:19 -0.1 °C -1.2 °C 1017.2 hPa Calm     92.7% 0 mm 0 W/m2
00:24 -0.1 °C -1.1 °C 1017.2 hPa Calm   1.6 km/h 93% 0 mm 0 W/m2
00:29 -0.1 °C -1.1 °C 1017.2 hPa Calm     93% 0 mm 0 W/m2
00:34 -0.1 °C -1.1 °C 1017.2 hPa Calm     93% 0 mm 0 W/m2
00:39 -0.2 °C -1.2 °C 1017.2 hPa Calm     92.5% 0 mm 0 W/m2
00:44 -0.2 °C -1.3 °C 1017.2 hPa Calm   1.6 km/h 92% 0 mm 0 W/m2
00:49 -0.2 °C -1.3 °C 1017.2 hPa Calm     92.4% 0 mm 0 W/m2
00:54 -0.2 °C -1.2 °C 1017.2 hPa NW 0.2 km/h 1.6 km/h 92.6% 0 mm 0 W/m2
00:59 -0.2 °C -1.2 °C 1017.2 hPa Calm     93% 0 mm 0 W/m2
01:04 -0.2 °C -1.2 °C 1017.2 hPa Calm     93% 0 mm 0 W/m2
01:09 -0.2 °C -1.2 °C 1017.2 hPa Calm     93% 0 mm 0 W/m2
01:14 -0.2 °C -1.2 °C 1016.8 hPa Calm     93% 0 mm 0 W/m2
01:19 -0.2 °C -1.2 °C 1017.2 hPa Calm     93% 0 mm 0 W/m2
01:24 -0.2 °C -1.2 °C 1017.2 hPa Calm     93% 0 mm 0 W/m2
01:29 -0.2 °C -1.2 °C 1017.2 hPa Calm     93% 0 mm 0 W/m2
01:34 -0.3 °C -1.3 °C 1017.2 hPa Calm     93% 0 mm 0 W/m2
01:39 -0.3 °C -1.3 °C 1017.2 hPa Calm     93% 0 mm 0 W/m2
01:44 -0.3 °C -1.3 °C 1017.2 hPa Calm   1.6 km/h 93% 0 mm 0 W/m2
01:49 -0.4 °C -1.4 °C 1017.2 hPa Calm   1.6 km/h 93% 0 mm 0 W/m2
01:54 -0.4 °C -1.4 °C 1016.8 hPa Calm   1.6 km/h 93% 0 mm 0 W/m2
01:59 -0.4 °C -1.4 °C 1016.8 hPa Calm   1.6 km/h 93% 0 mm 0 W/m2
02:04 -0.4 °C -1.4 °C 1016.8 hPa Calm   1.6 km/h 93% 0 mm 0 W/m2
02:09 -0.4 °C -1.4 °C 1016.8 hPa Calm     93% 0 mm 0 W/m2
02:14 -0.4 °C -1.4 °C 1017.2 hPa Calm   1.6 km/h 93% 0 mm 0 W/m2
02:19 -0.4 °C -1.4 °C 1017.2 hPa Calm     93% 0 mm 0 W/m2
02:24 -0.4 °C -1.4 °C 1017.2 hPa Calm   1.6 km/h 93% 0 mm 0 W/m2
02:29 -0.4 °C -1.4 °C 1017.2 hPa Calm     93% 0 mm 0 W/m2
02:34 -0.5 °C -1.5 °C 1016.8 hPa Calm     93% 0 mm 0 W/m2
02:35 -0.4 °C -1.4 °C 1016.8 hPa Calm     93% 0 mm 0 W/m2
06:10 -17.8 °C -17.8 °C 0 hPa Calm     % 0 mm W/m2
06:19 -0.2 °C -1 °C 1015.8 hPa Calm     94% 0 mm 0 W/m2
06:24 -0.2 °C -1 °C 1015.8 hPa Calm     94% 0 mm 0 W/m2
06:29 -0.3 °C -1.1 °C 1015.8 hPa Calm     94% 0 mm 0 W/m2
06:34 -0.2 °C -1.1 °C 1015.8 hPa Calm   1.6 km/h 94% 0 mm 0 W/m2
06:39 -0.2 °C -1.1 °C 1015.8 hPa Calm   3.2 km/h 94% 0 mm 0 W/m2
06:44 -0.2 °C -1 °C 1015.8 hPa Calm   3.2 km/h 94% 0 mm 0 W/m2
06:49 -0.2 °C -1 °C 1015.8 hPa Calm     94% 0 mm 0 W/m2
06:54 -0.2 °C -1 °C 1015.8 hPa Calm     94% 0 mm 0 W/m2
06:59 -0.2 °C -1 °C 1015.8 hPa Calm   1.6 km/h 94% 0 mm 0 W/m2
07:04 -0.2 °C -1 °C 1015.8 hPa Calm     94% 0 mm 0 W/m2
07:09 -0.2 °C -1 °C 1015.8 hPa Calm     94% 0 mm 0 W/m2
07:14 -0.2 °C -1 °C 1015.8 hPa Calm   1.6 km/h 94% 0 mm 0 W/m2
07:19 -0.2 °C -1 °C 1015.8 hPa Calm   1.6 km/h 94% 0 mm 0 W/m2
07:24 -0.2 °C -1 °C 1015.8 hPa Calm     94% 0 mm 0 W/m2
07:29 -0.2 °C -1 °C 1015.8 hPa Calm     94% 0 mm 0 W/m2
07:34 -0.2 °C -1 °C 1015.8 hPa Calm     94% 0 mm 5 W/m2
07:39 -0.2 °C -1 °C 1015.8 hPa Calm     94% 0 mm 7 W/m2
07:44 -0.2 °C -1 °C 1015.8 hPa Calm     94% 0 mm 11 W/m2
07:49 -0.1 °C -0.9 °C 1015.8 hPa Calm     94% 0 mm 14 W/m2
07:54 0.1 °C -0.7 °C 1015.8 hPa Calm     94% 0 mm 18 W/m2
07:59 0.7 °C -0.3 °C 1015.8 hPa Calm   1.6 km/h 94% 0 mm 21 W/m2
08:04 0.8 °C -0.1 °C 1015.8 hPa Calm     94% 0 mm 25 W/m2
08:09 0.8 °C -0.1 °C 1015.8 hPa Calm     94% 0 mm 26 W/m2
08:14 0.8 °C -0.1 °C 1015.8 hPa Calm   1.6 km/h 94% 0 mm 35 W/m2
08:19 0.9 °C 0.1 °C 1016.1 hPa Calm     94% 0 mm 40 W/m2
08:24 1.1 °C 0.2 °C 1016.1 hPa Calm     94% 0 mm 46 W/m2
08:29 1.2 °C 0.3 °C 1016.1 hPa Calm     94% 0 mm 49 W/m2
08:34 1.2 °C 0.2 °C 1016.1 hPa Calm     94% 0 mm 51 W/m2
08:39 1.2 °C 0.3 °C 1016.1 hPa Calm     94% 0.25 mm 54 W/m2
08:44 1.3 °C 0.3 °C 1016.1 hPa Calm     94% 0.25 mm 58 W/m2
08:49 1.3 °C 0.4 °C 1016.1 hPa Calm     94% 0.25 mm 62 W/m2
08:54 1.5 °C 0.6 °C 1016.1 hPa NW 0.2 km/h 1.6 km/h 94% 0.25 mm 65 W/m2
08:59 1.7 °C 0.8 °C 1016.1 hPa Calm   1.6 km/h 94% 0.25 mm 70 W/m2
09:04 1.8 °C 0.8 °C 1015.8 hPa NW 0.3 km/h 3.2 km/h 94% 0.25 mm 72 W/m2
09:09 1.8 °C 0.9 °C 1015.8 hPa Calm     94% 0.25 mm 77 W/m2
09:14 1.9 °C 1 °C 1015.8 hPa NW 0.2 km/h 3.2 km/h 94% 0.25 mm 84 W/m2
09:19 1.9 °C 1 °C 1015.8 hPa Calm   3.2 km/h 94% 0.25 mm 90 W/m2
09:24 2.1 °C 1.2 °C 1015.8 hPa Calm     94% 0.25 mm 93 W/m2
09:29 2.2 °C 1.3 °C 1016.1 hPa NW 0.8 km/h 4.8 km/h 94% 0.25 mm 93 W/m2
09:34 2.4 °C 1.5 °C 1016.1 hPa NW 0.2 km/h 3.2 km/h 94% 0.25 mm 90 W/m2
09:39 2.7 °C 1.8 °C 1016.1 hPa ENE 4.8 km/h 11.3 km/h 94% 0.25 mm 86 W/m2
09:44 3 °C 2.1 °C 1015.8 hPa ESE 3.9 km/h 11.3 km/h 94% 0 mm 95 W/m2
09:49 3.1 °C 2.2 °C 1015.8 hPa ESE 2.7 km/h 11.3 km/h 94% 0 mm 105 W/m2
09:54 3.1 °C 2.2 °C 1015.8 hPa ESE 3.2 km/h 11.3 km/h 94% 0 mm 127 W/m2
09:59 3.4 °C 2.6 °C 1015.8 hPa ESE 4 km/h 11.3 km/h 94% 0 mm 144 W/m2
10:04 3.8 °C 2.9 °C 1015.8 hPa ESE 2.7 km/h 11.3 km/h 94% 0 mm 169 W/m2
10:09 4.2 °C 3.3 °C 1015.8 hPa ESE 2.7 km/h 11.3 km/h 94% 0 mm 186 W/m2
10:14 4.5 °C 3.6 °C 1015.8 hPa ESE 2.4 km/h 9.7 km/h 94% 0 mm 169 W/m2
10:19 4.7 °C 3.7 °C 1015.8 hPa ESE 2.1 km/h 6.4 km/h 93.8% 0 mm 214 W/m2
10:24 4.8 °C 3.8 °C 1015.8 hPa ESE 2.1 km/h 6.4 km/h 93% 0 mm 165 W/m2
10:29 4.9 °C 3.9 °C 1015.5 hPa ESE 2.6 km/h 8 km/h 93% 0 mm 155 W/m2
10:34 5.2 °C 4.1 °C 1015.5 hPa ESE 1.9 km/h 8 km/h 92.3% 0 mm 167 W/m2
10:39 5.2 °C 4 °C 1015.5 hPa ESE 2.3 km/h 8 km/h 92% 0 mm 141 W/m2
10:44 5.2 °C 3.9 °C 1015.5 hPa ESE 3.1 km/h 12.9 km/h 91.2% 0 mm 141 W/m2
10:49 5.3 °C 3.9 °C 1015.5 hPa ESE 1 km/h 8 km/h 91% 0 mm 148 W/m2
10:54 5.4 °C 4.1 °C 1015.5 hPa ESE 3.5 km/h 11.3 km/h 90.8% 0 mm 151 W/m2
10:59 5.4 °C 3.9 °C 1015.5 hPa ESE 2.7 km/h 6.4 km/h 90% 0 mm 158 W/m2
11:04 5.5 °C 4 °C 1015.1 hPa ESE 2.9 km/h 8 km/h 90% 0 mm 156 W/m2
11:09 5.4 °C 3.8 °C 1015.1 hPa ESE 4.7 km/h 12.9 km/h 89.4% 0 mm 155 W/m2
11:14 5.4 °C 3.7 °C 1015.1 hPa ESE 1 km/h 9.7 km/h 89% 0 mm 155 W/m2
11:19 5.4 °C 3.7 °C 1015.1 hPa ESE 3.9 km/h 9.7 km/h 89% 0 mm 160 W/m2
11:24 5.4 °C 3.7 °C 1015.1 hPa SE 2.4 km/h 9.7 km/h 88.6% 0 mm 158 W/m2
11:29 5.4 °C 3.6 °C 1015.1 hPa SE 3.7 km/h 12.9 km/h 88% 0 mm 160 W/m2
11:34 5.4 °C 3.6 °C 1015.1 hPa SSE 2.9 km/h 12.9 km/h 88% 0 mm 153 W/m2
11:39 5.6 °C 3.7 °C 1015.1 hPa SSE 1.1 km/h 4.8 km/h 88% 0 mm 149 W/m2
11:44 5.7 °C 3.9 °C 1015.1 hPa SSE 1.4 km/h 6.4 km/h 88% 0 mm 151 W/m2
11:49 5.9 °C 4.1 °C 1015.1 hPa SSE 1.8 km/h 6.4 km/h 88% 0 mm 158 W/m2
11:54 5.9 °C 4.1 °C 1015.1 hPa SSE 1.3 km/h 6.4 km/h 88% 0 mm 169 W/m2
11:59 5.9 °C 4.1 °C 1015.1 hPa SSE 0.6 km/h 3.2 km/h 88% 0 mm 179 W/m2
12:04 6 °C 4.1 °C 1015.1 hPa SSE 0.8 km/h 4.8 km/h 87.3% 0 mm 179 W/m2
12:09 6.2 °C 4.3 °C 1015.1 hPa SE 1.9 km/h 6.4 km/h 87.3% 0 mm 169 W/m2
12:14 6.4 °C 4.5 °C 1015.1 hPa ESE 1.9 km/h 11.3 km/h 87.5% 0 mm 165 W/m2
12:19 6.6 °C 4.6 °C 1014.8 hPa ENE 0.8 km/h 4.8 km/h 87% 0 mm 155 W/m2
12:24 6.6 °C 4.6 °C 1014.8 hPa ENE 2.1 km/h 11.3 km/h 87% 0 mm 153 W/m2
12:29 6.8 °C 4.8 °C 1014.8 hPa ENE 2.3 km/h 8 km/h 87% 0 mm 165 W/m2
12:34 7.1 °C 5.1 °C 1014.8 hPa ENE 1.4 km/h 8 km/h 87% 0 mm 179 W/m2
12:39 7.2 °C 5.1 °C 1014.8 hPa East 2.9 km/h 11.3 km/h 86.3% 0 mm 179 W/m2
12:44 7.3 °C 5.1 °C 1014.8 hPa ESE 3.7 km/h 11.3 km/h 86% 0 mm 181 W/m2
12:49 7.4 °C 5.2 °C 1014.4 hPa East 1.3 km/h 11.3 km/h 86% 0 mm 185 W/m2
12:54 7.6 °C 5.2 °C 1014.4 hPa East 1.4 km/h 4.8 km/h 85.3% 0 mm 181 W/m2
12:59 7.6 °C 5.2 °C 1014.4 hPa East 1.1 km/h 6.4 km/h 85% 0 mm 151 W/m2
13:04 7.6 °C 5.2 °C 1014.4 hPa East 1.1 km/h 4.8 km/h 85% 0 mm 148 W/m2
13:09 7.7 °C 5.3 °C 1014.4 hPa East 0.3 km/h 3.2 km/h 85% 0 mm 146 W/m2
13:14 7.9 °C 5.5 °C 1014.4 hPa East 0.8 km/h 6.4 km/h 85% 0 mm 151 W/m2
13:19 8 °C 5.6 °C 1014.4 hPa East 0.8 km/h 4.8 km/h 85% 0 mm 141 W/m2
13:24 8 °C 5.6 °C 1014.1 hPa ESE 1.3 km/h 11.3 km/h 84.9% 0 mm 146 W/m2
13:29 8 °C 5.5 °C 1014.1 hPa ESE 2.1 km/h 11.3 km/h 84.3% 0 mm 130 W/m2
13:34 8.1 °C 5.7 °C 1014.1 hPa ESE 2.4 km/h 6.4 km/h 85% 0 mm 186 W/m2
13:39 8.2 °C 5.8 °C 1014.1 hPa ESE 2.1 km/h 6.4 km/h 85% 0 mm 190 W/m2
13:44 8.4 °C 6.1 °C 1014.1 hPa ESE 2.9 km/h 9.7 km/h 85% 0 mm 197 W/m2
13:49 8.6 °C 6.1 °C 1014.1 hPa SE 3.4 km/h 11.3 km/h 84.2% 0 mm 197 W/m2
13:54 8.6 °C 6 °C 1014.1 hPa SE 1.1 km/h 6.4 km/h 84% 0 mm 167 W/m2
13:59 8.6 °C 6 °C 1014.1 hPa SE 4.5 km/h 9.7 km/h 83.9% 0 mm 144 W/m2
14:04 8.6 °C 5.8 °C 1013.8 hPa SE 4.3 km/h 9.7 km/h 83.1% 0 mm 128 W/m2
14:09 8.5 °C 5.9 °C 1013.8 hPa SE 2.6 km/h 11.3 km/h 83.7% 0 mm 146 W/m2
14:14 8.4 °C 5.9 °C 1013.8 hPa SSE 1.9 km/h 11.3 km/h 84% 0 mm 153 W/m2
14:19 8.4 °C 5.9 °C 1013.8 hPa SE 6 km/h 12.9 km/h 84% 0 mm 174 W/m2
14:24 8.6 °C 6 °C 1013.8 hPa SE 5.5 km/h 14.5 km/h 84% 0 mm 176 W/m2
14:29 8.7 °C 6.1 °C 1013.4 hPa SE 4 km/h 16.1 km/h 84% 0 mm 176 W/m2
14:34 8.7 °C 6.2 °C 1013.4 hPa ESE 7.4 km/h 12.9 km/h 84% 0 mm 169 W/m2
14:39 8.8 °C 6.2 °C 1013.4 hPa SE 5.8 km/h 16.1 km/h 84% 0 mm 135 W/m2
14:44 8.8 °C 6.2 °C 1013.4 hPa SE 5.5 km/h 16.1 km/h 84% 0 mm 102 W/m2
14:49 8.7 °C 6.1 °C 1013.4 hPa SE 6.1 km/h 14.5 km/h 84% 0 mm 95 W/m2
14:54 8.7 °C 6.1 °C 1013.4 hPa SE 5.1 km/h 14.5 km/h 84% 0 mm 84 W/m2
14:59 8.7 °C 6.1 °C 1013.4 hPa ESE 4.8 km/h 11.3 km/h 84% 0 mm 76 W/m2
15:04 8.6 °C 6 °C 1013.4 hPa ESE 3.4 km/h 11.3 km/h 84% 0 mm 65 W/m2
15:09 8.4 °C 6 °C 1013.4 hPa ESE 5.1 km/h 11.3 km/h 84.3% 0 mm 58 W/m2
15:14 8.4 °C 6 °C 1013.4 hPa ESE 5.3 km/h 11.3 km/h 85% 0 mm 53 W/m2
15:19 8.4 °C 6 °C 1013.4 hPa ESE 5.1 km/h 12.9 km/h 85% 0 mm 53 W/m2
15:24 8.4 °C 6 °C 1013.4 hPa ESE 4.8 km/h 9.7 km/h 85% 0 mm 49 W/m2
15:29 8.3 °C 5.9 °C 1013.4 hPa ESE 2.4 km/h 6.4 km/h 85% 0 mm 46 W/m2
15:34 8.3 °C 5.9 °C 1013.4 hPa ESE 2.1 km/h 6.4 km/h 85.3% 0 mm 40 W/m2
15:39 8.2 °C 6 °C 1013.4 hPa ESE 4.7 km/h 9.7 km/h 85.9% 0 mm 30 W/m2
15:44 8.2 °C 6 °C 1013.4 hPa ESE 4.5 km/h 11.3 km/h 86% 0 mm 19 W/m2
15:49 8.2 °C 6 °C 1013.4 hPa East 3.4 km/h 9.7 km/h 86% 0 mm 19 W/m2
15:54 8.2 °C 6 °C 1013.4 hPa ESE 3.5 km/h 12.9 km/h 86% 0 mm 12 W/m2
15:59 8.1 °C 6 °C 1013.4 hPa SE 3.7 km/h 9.7 km/h 86.4% 0 mm 7 W/m2
16:04 8 °C 5.9 °C 1013.4 hPa SE 5 km/h 11.3 km/h 86.7% 0 mm 7 W/m2
16:09 8.1 °C 6.1 °C 1013.4 hPa ESE 6.4 km/h 12.9 km/h 87% 0 mm 0 W/m2
16:14 8.1 °C 6.1 °C 1013.4 hPa ESE 6.1 km/h 12.9 km/h 87% 0 mm 0 W/m2
16:19 8.2 °C 6.2 °C 1013.4 hPa ESE 7.2 km/h 12.9 km/h 87% 0 mm 0 W/m2
16:24 8.2 °C 6.2 °C 1013.4 hPa ESE 7.1 km/h 17.7 km/h 87.3% 0 mm 0 W/m2
16:29 8.2 °C 6.3 °C 1013.4 hPa ESE 7.7 km/h 14.5 km/h 87.9% 0 mm 0 W/m2
16:34 8.3 °C 6.3 °C 1013.4 hPa ESE 5.3 km/h 14.5 km/h 87.7% 0 mm 0 W/m2
16:39 8.3 °C 6.3 °C 1013.4 hPa ESE 6 km/h 14.5 km/h 87.9% 0 mm 0 W/m2
16:44 8.3 °C 6.4 °C 1013.4 hPa ESE 5.1 km/h 16.1 km/h 88% 0 mm 0 W/m2
16:49 8.2 °C 6.3 °C 1013.4 hPa ESE 6.3 km/h 14.5 km/h 87.6% 0 mm 0 W/m2
16:54 8.2 °C 6.2 °C 1013.4 hPa ESE 6.6 km/h 16.1 km/h 87.4% 0 mm 0 W/m2
16:59 8.2 °C 6.2 °C 1013.4 hPa ESE 6 km/h 12.9 km/h 87.2% 0 mm 0 W/m2
17:04 8.2 °C 6.3 °C 1013.4 hPa ESE 6.4 km/h 16.1 km/h 88% 0 mm 0 W/m2
17:09 8.1 °C 6.2 °C 1013.4 hPa ESE 6.8 km/h 12.9 km/h 88% 0 mm 0 W/m2
17:14 8.1 °C 6.2 °C 1013.4 hPa ESE 6.6 km/h 14.5 km/h 88% 0 mm 0 W/m2
17:19 8.1 °C 6.2 °C 1013.4 hPa ESE 6.9 km/h 16.1 km/h 88% 0 mm 0 W/m2
17:24 8.1 °C 6.2 °C 1013.4 hPa ESE 6.3 km/h 12.9 km/h 88% 0 mm 0 W/m2
17:29 8.1 °C 6.2 °C 1013.4 hPa SE 6.4 km/h 14.5 km/h 88% 0 mm 0 W/m2
17:34 8.1 °C 6.2 °C 1013.1 hPa SE 7.4 km/h 14.5 km/h 88% 0 mm 0 W/m2
17:39 8.1 °C 6.2 °C 1013.1 hPa SE 7.4 km/h 14.5 km/h 88% 0 mm 0 W/m2
17:44 8.1 °C 6.4 °C 1013.1 hPa SSE 6.9 km/h 17.7 km/h 89% 0 mm 0 W/m2
17:49 8.1 °C 6.3 °C 1013.1 hPa SE 7.2 km/h 17.7 km/h 88.7% 0 mm 0 W/m2
17:54 8.1 °C 6.3 °C 1013.1 hPa SSE 6.4 km/h 17.7 km/h 88.8% 0 mm 0 W/m2
17:59 8.1 °C 6.3 °C 1013.1 hPa SE 7.2 km/h 16.1 km/h 88.9% 0 mm 0 W/m2
18:04 8.1 °C 6.3 °C 1013.1 hPa SSE 9.7 km/h 19.3 km/h 88.7% 0 mm 0 W/m2
18:09 8.1 °C 6.2 °C 1013.1 hPa SE 7.6 km/h 19.3 km/h 88% 0 mm 0 W/m2
18:14 8.1 °C 6.2 °C 1013.1 hPa SE 6.3 km/h 14.5 km/h 88% 0 mm 0 W/m2
18:19 8.1 °C 6.2 °C 1013.1 hPa SE 7.1 km/h 16.1 km/h 88% 0 mm 0 W/m2
18:24 8.1 °C 6.2 °C 1013.1 hPa SSE 7.2 km/h 16.1 km/h 88% 0 mm 0 W/m2
18:29 8.1 °C 6.2 °C 1013.1 hPa SSE 6.1 km/h 16.1 km/h 88% 0 mm 0 W/m2
18:34 8.1 °C 6.2 °C 1013.1 hPa SSE 8.5 km/h 14.5 km/h 87.7% 0 mm 0 W/m2
18:39 8.1 °C 6.1 °C 1013.1 hPa SSE 7.1 km/h 14.5 km/h 87% 0 mm 0 W/m2
18:44 8.2 °C 6.2 °C 1013.1 hPa SSE 8.2 km/h 17.7 km/h 87% 0 mm 0 W/m2
18:49 8.2 °C 6.2 °C 1013.4 hPa SSE 7.4 km/h 14.5 km/h 87% 0 mm 0 W/m2
18:54 8.1 °C 6.1 °C 1013.1 hPa SE 5.5 km/h 14.5 km/h 87% 0 mm 0 W/m2
18:59 8.2 °C 6.2 °C 1013.1 hPa SSE 7.1 km/h 12.9 km/h 87% 0 mm 0 W/m2
19:04 8.2 °C 6.2 °C 1013.4 hPa SSE 8.4 km/h 16.1 km/h 87% 0 mm 0 W/m2
19:09 8.2 °C 6.2 °C 1013.4 hPa SSE 7.2 km/h 16.1 km/h 87% 0 mm 0 W/m2
19:14 8.3 °C 6.3 °C 1013.1 hPa SSE 7.4 km/h 17.7 km/h 87% 0 mm 0 W/m2
19:19 8.3 °C 6.3 °C 1013.1 hPa SSE 9.7 km/h 17.7 km/h 86.9% 0 mm 0 W/m2
19:24 8.4 °C 6.2 °C 1013.1 hPa SSE 8.2 km/h 17.7 km/h 86% 0 mm 0 W/m2
19:29 8.4 °C 6.2 °C 1013.1 hPa SSE 8.5 km/h 12.9 km/h 86% 0 mm 0 W/m2
19:34 8.4 °C 6.2 °C 1013.1 hPa SSE 9.7 km/h 22.5 km/h 86% 0 mm 0 W/m2
19:39 8.4 °C 6.2 °C 1013.1 hPa SE 7.4 km/h 22.5 km/h 86% 0 mm 0 W/m2
19:44 8.3 °C 6.2 °C 1013.1 hPa SSE 9 km/h 17.7 km/h 86% 0 mm 0 W/m2
19:46 8.3 °C 6.2 °C 1013.1 hPa SSE 7.6 km/h 17.7 km/h 86% 0 mm 0 W/m2
22:06 -17.8 °C -17.8 °C 0 hPa Calm     % 0 mm W/m2
22:19 7.9 °C 5.9 °C 1013.1 hPa SE 7.6 km/h 14.5 km/h 87% 0 mm 0 W/m2
22:24 7.9 °C 5.9 °C 1013.1 hPa SE 10.3 km/h 19.3 km/h 87% 0 mm 0 W/m2
22:29 7.9 °C 5.9 °C 1012.8 hPa SE 8.2 km/h 16.1 km/h 87% 0 mm 0 W/m2
22:34 7.9 °C 5.9 °C 1012.8 hPa SE 7.9 km/h 14.5 km/h 87% 0 mm 0 W/m2
22:39 7.9 °C 5.9 °C 1012.8 hPa SE 8.7 km/h 16.1 km/h 87% 0 mm 0 W/m2
22:44 7.9 °C 5.9 °C 1012.8 hPa SE 7.6 km/h 20.9 km/h 87% 0 mm 0 W/m2
22:49 7.9 °C 5.9 °C 1012.8 hPa SE 6.9 km/h 16.1 km/h 87% 0 mm 0 W/m2
22:54 7.9 °C 5.9 °C 1012.8 hPa SE 8.4 km/h 19.3 km/h 87% 0 mm 0 W/m2
22:59 7.9 °C 5.9 °C 1012.8 hPa SE 8 km/h 19.3 km/h 87% 0 mm 0 W/m2
23:04 7.9 °C 5.9 °C 1012.8 hPa SE 8.4 km/h 17.7 km/h 87% 0 mm 0 W/m2
23:09 7.9 °C 5.9 °C 1012.8 hPa SE 8.9 km/h 17.7 km/h 87% 0 mm 0 W/m2
23:14 7.9 °C 5.9 °C 1012.8 hPa SE 10.1 km/h 20.9 km/h 87% 0 mm 0 W/m2
23:19 7.9 °C 5.9 °C 1012.8 hPa ESE 9.5 km/h 20.9 km/h 87% 0 mm 0 W/m2
23:24 7.9 °C 5.9 °C 1012.8 hPa ESE 10 km/h 19.3 km/h 87% 0 mm 0 W/m2
23:29 7.9 °C 5.9 °C 1012.8 hPa ESE 8.2 km/h 19.3 km/h 87% 0 mm 0 W/m2
23:34 7.9 °C 5.9 °C 1012.8 hPa SE 7.1 km/h 16.1 km/h 87% 0 mm 0 W/m2
23:39 7.8 °C 5.8 °C 1012.4 hPa ESE 6.6 km/h 14.5 km/h 87% 0 mm 0 W/m2
23:44 7.8 °C 5.8 °C 1012.4 hPa SE 9.3 km/h 19.3 km/h 87% 0 mm 0 W/m2
23:49 7.8 °C 5.8 °C 1012.4 hPa ESE 7.1 km/h 16.1 km/h 87% 0 mm 0 W/m2
23:54 7.8 °C 5.8 °C 1012.4 hPa SE 8.5 km/h 17.7 km/h 87% 0 mm 0 W/m2
23:59 7.8 °C 5.8 °C 1012.4 hPa SE 6.4 km/h 16.1 km/h 87% 0 mm 0 W/m2
Bath Spa Weather
Compliments of Weather Underground - 2 mb